Time;durP1;ratioP1;P1;durP2;ratioP2;P2;SDS_P1;SDS_P2;PMS_P1;PMS_P2;Temp;Humidity;BMP_temperature;BMP_pressure;BME280_temperature;BME280_humidity;BME280_pressure;Samples;Min_cycle;Max_cycle;Signal;HPM_P1;HPM_P2
2022/03/31 00:01:33;;;;;;;306.60;280.38;;;;;;;18.53;32.11;91871.03;5050924;28;20033;-72
2022/03/31 00:03:59;;;;;;;320.38;292.73;;;;;;;18.53;31.96;91871.75;5046197;28;20482;-72
2022/03/31 00:06:25;;;;;;;300.63;274.42;;;;;;;18.53;32.21;91876.44;5049040;28;20137;-72
2022/03/31 00:08:50;;;;;;;295.70;269.60;;;;;;;18.53;32.26;91876.44;5050676;28;20048;-72
2022/03/31 00:11:17;;;;;;;297.98;272.10;;;;;;;18.53;32.27;91871.75;5047137;28;20064;-72
2022/03/31 00:13:43;;;;;;;316.55;288.40;;;;;;;18.53;32.21;91871.03;5052986;28;20572;-73
2022/03/31 00:16:09;;;;;;;311.05;283.85;;;;;;;18.54;32.08;91858.97;5044282;28;20069;-73
2022/03/31 00:18:35;;;;;;;303.65;277.33;;;;;;;18.52;32.27;91859.47;5054137;28;20408;-72
2022/03/31 00:21:00;;;;;;;306.88;280.55;;;;;;;18.54;32.41;91861.66;5058048;28;20051;-72
2022/03/31 00:23:26;;;;;;;305.50;279.13;;;;;;;18.53;32.17;91858.22;5051277;28;20103;-74
2022/03/31 00:25:52;;;;;;;301.58;275.45;;;;;;;18.52;32.07;91859.47;5045479;28;20046;-73
2022/03/31 00:28:17;;;;;;;299.77;273.88;;;;;;;18.52;32.20;91853.31;5052529;28;20039;-74
2022/03/31 00:30:43;;;;;;;303.58;277.33;;;;;;;18.52;32.17;91856.03;5051520;28;20040;-74
2022/03/31 00:33:09;;;;;;;297.90;271.90;;;;;;;18.52;32.13;91845.22;5063451;28;20496;-73
2022/03/31 00:35:35;;;;;;;307.27;280.48;;;;;;;18.52;32.10;91837.09;5052424;28;20043;-73
2022/03/31 00:38:00;;;;;;;303.23;277.30;;;;;;;18.50;32.21;91834.88;5047282;28;20037;-74
2022/03/31 00:40:27;;;;;;;315.90;289.20;;;;;;;18.52;32.21;91835.09;5044852;28;20579;-73
2022/03/31 00:42:57;;;;;;;307.63;281.17;;;;;;;18.52;32.27;91831.66;5044321;28;20460;-73
2022/03/31 00:45:46;;;;;;;304.05;277.80;;;;;;;18.52;32.15;91828.97;5044698;28;20384;-74
2022/03/31 00:48:13;;;;;;;309.88;282.98;;;;;;;18.52;32.27;91818.88;5042948;28;20049;-74
2022/03/31 00:50:39;;;;;;;308.33;281.83;;;;;;;18.52;32.37;91818.88;5053889;28;20065;-73
2022/03/31 00:53:05;;;;;;;298.70;272.65;;;;;;;18.52;32.22;91820.84;5054165;28;20075;-74
2022/03/31 00:55:38;;;;;;;318.95;291.58;;;;;;;18.51;32.34;91814.69;5058200;28;20037;-74
2022/03/31 00:58:05;;;;;;;309.77;282.35;;;;;;;18.52;32.21;91812.72;5045722;28;20114;-73
2022/03/31 01:00:31;;;;;;;307.25;280.55;;;;;;;18.53;32.24;91811.47;5065961;28;20056;-73
2022/03/31 01:02:56;;;;;;;300.55;275.00;;;;;;;18.52;32.20;91810.03;5053713;28;20041;-74
2022/03/31 01:05:22;;;;;;;301.67;275.90;;;;;;;18.51;32.31;91808.56;5055049;28;20041;-73
2022/03/31 01:07:47;;;;;;;306.75;280.13;;;;;;;18.49;32.23;91800.94;5050787;28;20408;-73
2022/03/31 01:10:14;;;;;;;300.95;275.00;;;;;;;18.50;32.10;91801.69;5046599;28;20044;-73
2022/03/31 01:12:40;;;;;;;311.27;284.90;;;;;;;18.51;32.30;91805.84;5052310;28;20095;-73
2022/03/31 01:15:14;;;;;;;306.60;280.05;;;;;;;18.52;32.36;91799.19;5047067;28;20351;-73
2022/03/31 01:17:43;;;;;;;306.90;280.55;;;;;;;18.52;32.40;91799.19;5049059;28;20040;-74
2022/03/31 01:20:12;;;;;;;303.50;277.52;;;;;;;18.52;32.04;91796.47;5060619;28;20036;-74
2022/03/31 01:22:37;;;;;;;303.17;277.08;;;;;;;18.51;32.03;91793.03;5052422;28;20047;-73
2022/03/31 01:25:07;;;;;;;300.30;274.40;;;;;;;18.51;32.13;91795.75;5061438;28;20060;-74
2022/03/31 01:27:35;;;;;;;298.35;272.40;;;;;;;18.51;32.03;91784.19;5064667;28;20039;-74
2022/03/31 01:30:01;;;;;;;307.75;281.60;;;;;;;18.51;32.05;91795.75;5063075;28;20040;-73
2022/03/31 01:32:27;;;;;;;306.23;279.60;;;;;;;18.51;32.20;91792.31;5047863;28;20060;-74
2022/03/31 01:34:52;;;;;;;307.70;281.38;;;;;;;18.50;32.21;91783.47;5061760;28;20071;-73
2022/03/31 01:37:18;;;;;;;305.02;278.42;;;;;;;18.51;32.23;91784.19;5058326;28;20040;-74
2022/03/31 01:39:43;;;;;;;298.27;272.67;;;;;;;18.50;31.95;91780.75;5061171;28;20037;-74
2022/03/31 01:42:09;;;;;;;295.48;269.17;;;;;;;18.51;32.30;91786.91;5050181;28;20093;-74
2022/03/31 01:44:35;;;;;;;309.77;283.00;;;;;;;18.50;32.15;91791.59;5060707;28;20107;-73
2022/03/31 01:47:00;;;;;;;305.15;279.02;;;;;;;18.51;32.15;91789.59;5059430;28;20064;-74
2022/03/31 01:49:26;;;;;;;301.30;275.58;;;;;;;18.50;32.16;91771.91;5064592;28;20123;-74
2022/03/31 01:51:51;;;;;;;300.67;274.83;;;;;;;18.49;32.23;91778.56;5057474;28;20071;-74
2022/03/31 01:54:17;;;;;;;310.45;282.85;;;;;;;18.48;32.28;91772.41;5059869;28;20501;-74
2022/03/31 01:56:44;;;;;;;303.85;277.77;;;;;;;18.48;32.15;91779.81;5058676;28;20041;-74
2022/03/31 01:59:10;;;;;;;303.25;277.08;;;;;;;18.47;32.18;91768.25;5054274;28;20354;-73
2022/03/31 02:01:36;;;;;;;304.85;278.45;;;;;;;18.47;32.05;91770.22;5050951;28;20505;-73
2022/03/31 02:04:02;;;;;;;302.65;276.33;;;;;;;18.45;32.19;91759.91;5047046;28;20375;-74
2022/03/31 02:06:27;;;;;;;301.48;274.88;;;;;;;18.46;32.01;91764.06;5049900;28;20041;-73
2022/03/31 02:08:55;;;;;;;303.17;277.13;;;;;;;18.46;32.16;91755.22;5056572;28;20048;-74
2022/03/31 02:11:20;;;;;;;322.77;294.52;;;;;;;18.44;32.05;91742.94;5051118;28;20136;-74
2022/03/31 02:13:47;;;;;;;305.52;278.88;;;;;;;18.46;32.31;91745.13;5054208;28;20144;-74
2022/03/31 02:16:13;;;;;;;306.98;279.95;;;;;;;18.46;32.14;91749.81;5050612;28;20399;-73
2022/03/31 02:18:39;;;;;;;304.63;278.48;;;;;;;18.45;32.04;91749.06;5057467;28;20040;-74
2022/03/31 02:21:05;;;;;;;313.92;287.17;;;;;;;18.44;32.17;91742.94;5056786;28;20037;-73
2022/03/31 02:23:30;;;;;;;315.88;289.27;;;;;;;18.44;32.19;91726.69;5069285;28;20048;-74
2022/03/31 02:25:56;;;;;;;296.25;271.20;;;;;;;18.44;31.98;91720.53;5056845;28;20317;-74
2022/03/31 02:28:21;;;;;;;302.63;276.52;;;;;;;18.44;32.36;91723.97;5056360;28;20477;-73
2022/03/31 02:30:47;;;;;;;310.20;284.17;;;;;;;18.44;32.08;91723.97;5060845;28;20039;-74
2022/03/31 02:33:12;;;;;;;304.63;278.60;;;;;;;18.43;32.12;91713.66;5054475;28;20037;-74
2022/03/31 02:35:38;;;;;;;296.20;270.63;;;;;;;18.44;32.46;91713.16;5049164;28;20619;-74
2022/03/31 02:38:04;;;;;;;295.70;269.88;;;;;;;18.43;32.20;91711.69;5058532;28;20504;-74
2022/03/31 02:40:29;;;;;;;302.80;276.42;;;;;;;18.44;32.13;91707.00;5047402;28;20119;-74
2022/03/31 02:42:55;;;;;;;309.55;283.17;;;;;;;18.44;32.38;91709.72;5052830;28;20069;-73
2022/03/31 02:45:20;;;;;;;305.75;279.17;;;;;;;18.44;32.14;91704.31;5049071;28;20135;-74
2022/03/31 02:47:46;;;;;;;302.50;276.50;;;;;;;18.44;32.18;91715.88;5073570;28;20071;-74
2022/03/31 02:50:14;;;;;;;300.45;274.08;;;;;;;18.43;32.15;91703.59;5058147;28;20465;-73
2022/03/31 02:55:28;;;;;;;302.00;275.67;;;;;;;18.44;32.33;91696.94;5054713;28;20045;-74
2022/03/31 02:58:00;;;;;;;301.55;275.27;;;;;;;18.42;32.05;91688.59;5049930;28;20044;-74
2022/03/31 03:00:27;;;;;;;299.40;273.13;;;;;;;18.44;32.05;91693.47;5057104;28;20037;-73
2022/03/31 03:02:53;;;;;;;321.77;294.00;;;;;;;18.43;31.82;91692.03;5049104;28;20076;-74
2022/03/31 03:05:19;;;;;;;305.83;279.27;;;;;;;18.42;32.20;91683.16;5049202;28;20064;-74
2022/03/31 03:07:45;;;;;;;302.17;275.88;;;;;;;18.42;32.00;91680.47;5049036;28;20041;-74
2022/03/31 03:10:11;;;;;;;308.98;282.42;;;;;;;18.43;32.20;91686.59;5054336;28;20468;-73
2022/03/31 03:12:36;;;;;;;314.70;287.23;;;;;;;18.43;32.04;91676.50;5049727;28;20417;-73
2022/03/31 03:15:03;;;;;;;312.00;285.90;;;;;;;18.43;31.98;91673.81;5050692;28;20096;-73
2022/03/31 03:17:29;;;;;;;318.15;290.95;;;;;;;18.43;32.01;91668.41;5057029;28;20049;-73
2022/03/31 03:19:55;;;;;;;320.27;293.08;;;;;;;18.44;32.17;91671.84;5048345;28;20040;-74
2022/03/31 03:22:21;;;;;;;308.55;281.67;;;;;;;18.43;32.29;91673.81;5048965;28;20628;-73
2022/03/31 03:24:46;;;;;;;307.33;281.45;;;;;;;18.43;32.11;91675.78;5055059;28;20045;-73
2022/03/31 03:27:11;;;;;;;307.42;281.40;;;;;;;18.44;32.10;91669.13;5048067;28;20057;-74
2022/03/31 03:29:45;;;;;;;288.48;262.95;;;;;;;18.42;32.09;91672.34;5052777;28;20103;-74
2022/03/31 03:32:10;;;;;;;311.48;284.48;;;;;;;18.43;32.11;91673.06;5050274;28;20149;-74
2022/03/31 03:34:36;;;;;;;312.10;285.05;;;;;;;18.42;32.24;91672.34;5049324;28;20091;-74
2022/03/31 03:37:02;;;;;;;299.20;273.40;;;;;;;18.41;32.13;91670.16;5051185;28;20490;-74
2022/03/31 03:39:27;;;;;;;304.00;277.42;;;;;;;18.42;32.12;91671.63;5050222;28;20037;-74
2022/03/31 03:41:53;;;;;;;292.98;267.38;;;;;;;18.41;32.16;91670.16;5051075;28;20044;-74
2022/03/31 03:44:18;;;;;;;322.00;294.30;;;;;;;18.40;32.12;91666.72;5056836;28;20493;-74
2022/03/31 03:46:44;;;;;;;306.52;280.02;;;;;;;18.41;31.94;91662.03;5056535;28;20033;-74
2022/03/31 03:49:09;;;;;;;317.38;290.55;;;;;;;18.40;32.12;91661.31;5047196;28;20041;-75
2022/03/31 03:51:35;;;;;;;293.38;268.25;;;;;;;18.40;32.02;91665.97;5059862;28;20040;-74
2022/03/31 03:54:00;;;;;;;300.70;274.90;;;;;;;18.41;31.99;91656.63;5052983;28;20040;-74
2022/03/31 03:56:25;;;;;;;309.27;283.02;;;;;;;18.41;32.13;91662.75;5059084;28;20049;-74
2022/03/31 03:58:51;;;;;;;305.98;279.85;;;;;;;18.43;31.98;91667.66;5058240;28;20044;-74
2022/03/31 04:01:19;;;;;;;309.77;283.52;;;;;;;18.44;32.36;91663.72;5055025;28;20052;-74
2022/03/31 04:03:45;;;;;;;296.35;270.40;;;;;;;18.44;32.43;91659.03;5050703;28;20688;-75
2022/03/31 04:06:11;;;;;;;303.17;277.38;;;;;;;18.47;32.17;91662.69;5051380;28;20052;-74
2022/03/31 04:08:38;;;;;;;300.35;274.13;;;;;;;18.48;32.29;91652.59;5056086;28;20464;-74
2022/03/31 04:11:04;;;;;;;300.98;275.38;;;;;;;18.50;32.17;91652.81;5069702;28;20041;-74
2022/03/31 04:13:29;;;;;;;304.92;279.30;;;;;;;18.51;32.25;91656.97;5051705;28;20207;-74
2022/03/31 04:15:55;;;;;;;309.70;283.75;;;;;;;18.52;32.29;91644.91;5047708;28;20056;-74
2022/03/31 04:18:21;;;;;;;314.00;287.48;;;;;;;18.52;32.11;91651.06;5055197;28;20090;-74
2022/03/31 04:20:46;;;;;;;312.25;286.25;;;;;;;18.54;32.12;91651.28;5057804;28;20049;-74
2022/03/31 04:23:12;;;;;;;306.95;280.95;;;;;;;18.55;32.35;91650.03;5050792;28;20404;-74
2022/03/31 04:25:37;;;;;;;315.08;288.27;;;;;;;18.56;32.53;91648.78;5049483;28;20040;-74
2022/03/31 04:28:04;;;;;;;314.02;288.00;;;;;;;18.58;32.11;91651.72;5046822;28;20417;-74
2022/03/31 04:30:29;;;;;;;309.13;283.13;;;;;;;18.58;32.37;91661.81;5051247;28;20191;-74
2022/03/31 04:32:55;;;;;;;319.63;293.23;;;;;;;18.61;32.23;91658.09;5055636;28;20925;-74
2022/03/31 04:35:20;;;;;;;320.45;294.00;;;;;;;18.61;32.42;91644.56;5055637;28;20064;-74
2022/03/31 04:37:46;;;;;;;317.02;290.40;;;;;;;18.63;32.09;91650.94;5051891;28;21060;-74
2022/03/31 04:40:11;;;;;;;326.88;299.90;;;;;;;18.63;32.19;91650.94;5051584;28;20099;-75
2022/03/31 04:42:37;;;;;;;316.88;290.75;;;;;;;18.65;32.37;91645.00;5054937;28;20273;-74
2022/03/31 04:45:04;;;;;;;314.90;288.45;;;;;;;18.67;32.47;91650.63;5046229;28;20044;-74
2022/03/31 04:47:30;;;;;;;328.40;301.80;;;;;;;18.68;32.17;91649.38;5055504;28;20052;-75
2022/03/31 04:49:57;;;;;;;318.50;292.35;;;;;;;18.70;32.58;91647.63;5055192;28;20055;-74
2022/03/31 04:52:22;;;;;;;325.23;298.25;;;;;;;18.70;32.28;91638.78;5047817;28;20103;-74
2022/03/31 04:54:47;;;;;;;321.83;295.33;;;;;;;18.71;32.14;91643.69;5059187;28;20032;-74
2022/03/31 04:57:15;;;;;;;327.38;300.92;;;;;;;18.73;32.19;91649.31;5048182;28;20059;-74
2022/03/31 04:59:42;;;;;;;322.35;296.00;;;;;;;18.74;32.37;91647.31;5050560;28;20120;-74
2022/03/31 05:02:09;;;;;;;327.23;300.13;;;;;;;18.74;32.31;91650.78;5058229;28;20431;-74
2022/03/31 05:04:34;;;;;;;340.67;312.23;;;;;;;18.74;32.39;91645.34;5056942;28;20045;-75
2022/03/31 05:07:00;;;;;;;326.98;300.25;;;;;;;18.75;32.25;91646.81;5052791;28;20452;-74
2022/03/31 05:09:25;;;;;;;322.85;296.63;;;;;;;18.77;32.44;91648.28;5053642;28;20055;-76
2022/03/31 05:11:51;;;;;;;324.75;298.20;;;;;;;18.77;32.18;91650.97;5059368;28;20113;-76
2022/03/31 05:14:16;;;;;;;341.98;313.73;;;;;;;18.78;32.11;91652.44;5058640;28;20061;-75
2022/03/31 05:16:42;;;;;;;319.10;292.70;;;;;;;18.78;32.01;91655.88;5061245;28;20473;-76
2022/03/31 05:19:08;;;;;;;347.20;319.20;;;;;;;18.78;32.42;91649.75;5056711;28;20087;-76
2022/03/31 05:21:36;;;;;;;329.17;302.63;;;;;;;18.81;32.10;91643.28;5055580;28;20040;-76
2022/03/31 05:24:01;;;;;;;324.83;298.13;;;;;;;18.80;32.36;91649.97;5053963;28;20045;-76
2022/03/31 05:26:27;;;;;;;328.02;301.45;;;;;;;18.79;32.37;91646.53;5049563;28;20107;-76
2022/03/31 05:28:53;;;;;;;328.80;302.33;;;;;;;18.80;32.28;91647.97;5052716;28;20066;-75
2022/03/31 05:31:19;;;;;;;341.75;314.08;;;;;;;18.79;32.49;91638.41;5053860;28;20052;-74
2022/03/31 05:33:44;;;;;;;327.88;301.25;;;;;;;18.79;32.31;91646.53;5060820;28;20413;-74
2022/03/31 05:36:10;;;;;;;328.17;301.45;;;;;;;18.77;32.11;91649.00;5056379;28;20511;-73
2022/03/31 05:38:35;;;;;;;328.35;301.80;;;;;;;18.74;32.24;91650.03;5051926;28;20052;-72
2022/03/31 05:41:01;;;;;;;321.80;295.33;;;;;;;18.72;32.55;91639.00;5050353;28;20040;-72
2022/03/31 05:43:27;;;;;;;333.15;306.55;;;;;;;18.71;32.61;91642.94;5048571;28;20059;-73
2022/03/31 05:45:53;;;;;;;341.88;312.75;;;;;;;18.69;32.47;91638.03;5051857;28;20086;-74
2022/03/31 05:48:18;;;;;;;329.10;302.27;;;;;;;18.70;32.29;91636.06;5046709;28;20037;-71
2022/03/31 05:50:44;;;;;;;318.08;291.95;;;;;;;18.69;32.43;91640.03;5063452;28;20040;-70
2022/03/31 05:53:10;;;;;;;335.42;308.63;;;;;;;18.69;32.41;91645.44;5055536;28;20059;-70
2022/03/31 05:55:36;;;;;;;322.83;296.45;;;;;;;18.67;32.48;91645.94;5053444;28;20040;-70
2022/03/31 05:58:02;;;;;;;310.10;284.20;;;;;;;18.67;32.42;91637.81;5048981;28;20067;-70
2022/03/31 06:00:28;;;;;;;319.77;293.30;;;;;;;18.66;32.34;91636.38;5064771;28;20059;-70
2022/03/31 06:02:55;;;;;;;336.08;308.00;;;;;;;18.67;32.43;91637.09;5050723;28;20044;-69
2022/03/31 06:05:21;;;;;;;334.80;307.92;;;;;;;18.66;32.41;91636.38;5052794;28;20037;-69
2022/03/31 06:07:48;;;;;;;332.85;305.77;;;;;;;18.66;32.47;91641.06;5061424;28;20040;-71
2022/03/31 06:10:13;;;;;;;318.65;292.95;;;;;;;18.66;32.27;91635.63;5061267;28;20088;-70
2022/03/31 06:12:39;;;;;;;318.55;292.40;;;;;;;18.66;32.28;91644.50;5056836;28;20048;-70
2022/03/31 06:15:06;;;;;;;317.38;291.13;;;;;;;18.66;32.24;91641.06;5059363;28;20037;-68
2022/03/31 06:17:33;;;;;;;320.35;294.08;;;;;;;18.66;32.41;91632.94;5061379;28;20087;-68
2022/03/31 06:19:58;;;;;;;309.50;283.55;;;;;;;18.67;32.24;91637.09;5064201;28;20037;-67
2022/03/31 06:22:25;;;;;;;314.38;288.27;;;;;;;18.66;32.23;91641.06;5058504;28;22140;-67
2022/03/31 06:24:51;;;;;;;311.20;285.50;;;;;;;18.67;32.18;91642.50;5061872;28;20041;-70
2022/03/31 06:27:16;;;;;;;319.20;292.88;;;;;;;18.67;32.17;91635.13;5055770;28;20103;-66
2022/03/31 06:29:45;;;;;;;324.23;296.88;;;;;;;18.67;32.47;91637.09;5059596;28;20064;-66
2022/03/31 06:32:14;;;;;;;314.88;288.63;;;;;;;18.68;32.35;91628.47;5061479;28;20139;-67
2022/03/31 06:34:40;;;;;;;329.48;301.85;;;;;;;18.67;32.31;91639.81;5064530;28;20040;-68
2022/03/31 06:37:06;;;;;;;316.10;289.85;;;;;;;18.68;32.48;91630.44;5060863;28;20060;-67
2022/03/31 06:39:31;;;;;;;318.15;291.60;;;;;;;18.69;32.30;91629.19;5056820;28;20040;-67
2022/03/31 06:41:57;;;;;;;321.17;294.95;;;;;;;18.69;32.35;91631.91;5060110;28;20044;-67
2022/03/31 06:44:22;;;;;;;311.60;284.88;;;;;;;18.68;32.52;91633.88;5059734;28;20346;-70
2022/03/31 06:46:48;;;;;;;342.23;312.65;;;;;;;18.69;32.32;91637.31;5055099;28;20045;-68
2022/03/31 06:49:14;;;;;;;337.85;308.10;;;;;;;18.55;32.67;91622.22;5032326;28;20082;-68
2022/03/31 06:51:42;;;;;;;346.08;316.05;;;;;;;18.63;32.69;91620.41;5034230;28;20491;-69
2022/03/31 06:54:09;;;;;;;336.63;307.50;;;;;;;18.68;32.69;91620.34;5032867;28;20045;-69
2022/03/31 06:56:35;;;;;;;332.67;303.45;;;;;;;18.71;32.39;91627.44;5030329;28;20041;-69
2022/03/31 06:59:01;;;;;;;332.60;304.27;;;;;;;18.70;32.38;91617.84;5032929;28;20138;-69
2022/03/31 07:01:28;;;;;;;327.40;298.45;;;;;;;18.73;32.48;91619.53;5031735;28;20059;-69
2022/03/31 07:03:54;;;;;;;342.00;312.85;;;;;;;18.73;32.53;91611.41;5028408;28;20427;-69
2022/03/31 07:06:22;;;;;;;333.48;303.73;;;;;;;18.73;32.33;91618.78;5028407;28;20124;-69
2022/03/31 07:08:48;;;;;;;333.83;304.58;;;;;;;18.76;32.39;91617.75;5028479;28;20505;-69
2022/03/31 07:11:14;;;;;;;328.15;300.33;;;;;;;18.75;32.42;91611.63;5031980;28;20048;-69
2022/03/31 07:13:40;;;;;;;338.55;309.02;;;;;;;18.77;32.17;91615.78;5028059;28;20127;-70
2022/03/31 07:16:06;;;;;;;332.45;303.48;;;;;;;18.77;32.31;91608.41;5029092;28;20045;-69
2022/03/31 07:18:32;;;;;;;339.88;310.08;;;;;;;18.78;32.23;91609.84;5028680;28;20045;-69
2022/03/31 07:20:57;;;;;;;347.02;317.23;;;;;;;18.79;32.30;91611.31;5027918;28;20127;-69
2022/03/31 07:23:25;;;;;;;343.33;313.60;;;;;;;18.81;32.23;91606.13;5032247;28;20425;-70
2022/03/31 07:25:52;;;;;;;329.30;300.58;;;;;;;18.80;32.35;91604.66;5031170;28;20531;-69
2022/03/31 07:28:17;;;;;;;343.52;313.67;;;;;;;18.81;32.16;91608.81;5029147;28;20123;-68
2022/03/31 07:30:43;;;;;;;333.88;303.65;;;;;;;18.82;32.21;91610.28;5025941;28;20683;-68
2022/03/31 07:33:09;;;;;;;366.13;333.05;;;;;;;18.80;32.32;91596.53;5021764;28;20056;-68
2022/03/31 07:35:37;;;;;;;338.48;308.98;;;;;;;18.81;32.16;91613.50;5029849;28;20060;-68
2022/03/31 07:38:04;;;;;;;336.30;306.63;;;;;;;18.82;32.06;91604.13;5026759;28;20036;-68
2022/03/31 07:40:30;;;;;;;366.95;334.15;;;;;;;18.83;31.95;91609.03;5022532;28;20044;-67
2022/03/31 07:42:57;;;;;;;335.80;306.98;;;;;;;18.82;32.04;91596.75;5022119;28;20136;-68
2022/03/31 07:45:23;;;;;;;336.40;306.83;;;;;;;18.81;31.97;91597.25;5028067;28;20044;-69
2022/03/31 07:47:49;;;;;;;337.95;308.60;;;;;;;18.79;32.18;91600.47;5029957;28;20087;-69
2022/03/31 07:50:16;;;;;;;337.45;308.55;;;;;;;18.78;31.94;91592.88;5030800;28;20041;-69
2022/03/31 07:52:43;;;;;;;345.60;315.60;;;;;;;18.77;31.92;91589.44;5023849;28;20140;-68
2022/03/31 07:55:11;;;;;;;345.73;315.85;;;;;;;18.74;32.20;91582.34;5025980;28;20469;-67
2022/03/31 07:57:38;;;;;;;337.25;307.83;;;;;;;18.73;32.26;91584.31;5028295;28;20132;-68
2022/03/31 08:00:08;;;;;;;354.48;323.52;;;;;;;18.72;32.02;91588.28;5028068;28;20052;-68
2022/03/31 08:02:34;;;;;;;335.08;305.73;;;;;;;18.72;32.04;91591.00;5030782;28;20049;-68
2022/03/31 08:05:00;;;;;;;329.13;300.25;;;;;;;18.71;32.08;91581.41;5028934;28;20079;-68
2022/03/31 08:07:25;;;;;;;332.75;303.92;;;;;;;18.71;32.07;91583.38;5031265;28;20036;-68
2022/03/31 08:09:51;;;;;;;326.95;298.23;;;;;;;18.70;32.25;91590.78;5031314;28;20041;-68
2022/03/31 08:12:17;;;;;;;340.55;310.27;;;;;;;18.71;32.15;91580.69;5029080;28;20298;-68
2022/03/31 08:14:43;;;;;;;351.38;320.45;;;;;;;18.70;32.23;91582.66;5028292;28;20103;-68
2022/03/31 08:17:09;;;;;;;337.90;308.45;;;;;;;18.68;32.29;91579.72;5027205;28;20057;-68
2022/03/31 08:19:35;;;;;;;334.92;305.50;;;;;;;18.70;32.26;91584.63;5027515;28;20041;-69
2022/03/31 08:22:02;;;;;;;334.35;305.33;;;;;;;18.70;31.82;91576.50;5031690;28;20773;-68
2022/03/31 08:24:30;;;;;;;366.15;333.58;;;;;;;18.69;32.09;91580.47;5027156;28;20052;-68
2022/03/31 08:26:58;;;;;;;327.15;298.58;;;;;;;18.70;32.00;91573.81;5028529;28;20200;-69
2022/03/31 08:29:25;;;;;;;329.00;300.20;;;;;;;18.70;32.03;91577.22;5027691;28;20056;-68
2022/03/31 08:31:52;;;;;;;333.50;304.02;;;;;;;18.69;32.11;91580.47;5028149;28;20132;-68
2022/03/31 08:34:18;;;;;;;343.77;313.17;;;;;;;18.66;32.08;91579.50;5026640;28;20553;-68
2022/03/31 08:36:43;;;;;;;344.83;314.35;;;;;;;18.66;32.12;91581.50;5028813;28;20040;-69
2022/03/31 08:39:09;;;;;;;319.63;291.35;;;;;;;18.66;32.10;91584.19;5029645;28;20041;-68
2022/03/31 08:41:35;;;;;;;333.65;305.60;;;;;;;18.65;32.34;91588.16;5028007;28;20047;-69
2022/03/31 08:44:01;;;;;;;341.05;311.33;;;;;;;18.65;32.18;91586.19;5029130;28;20045;-69
2022/03/31 08:46:34;;;;;;;325.73;296.40;;;;;;;18.66;32.18;91578.78;5029403;28;20037;-69
2022/03/31 08:49:01;;;;;;;347.42;316.58;;;;;;;18.65;32.29;91580.75;5025846;28;20049;-68
2022/03/31 08:51:27;;;;;;;332.45;303.52;;;;;;;18.66;31.83;91573.38;5027545;28;20788;-68
2022/03/31 08:53:53;;;;;;;335.05;305.98;;;;;;;18.64;32.19;91582.00;5028740;28;20041;-69
2022/03/31 08:56:19;;;;;;;336.08;306.48;;;;;;;18.64;32.10;91578.56;5028290;28;20110;-68
2022/03/31 08:58:46;;;;;;;332.95;303.60;;;;;;;18.63;32.17;91577.84;5027730;28;20401;-68
2022/03/31 09:01:13;;;;;;;337.33;308.02;;;;;;;18.64;32.13;91573.16;5028732;28;20142;-68
2022/03/31 09:03:39;;;;;;;335.13;305.40;;;;;;;18.64;32.17;91573.16;5029177;28;20083;-68
2022/03/31 09:06:07;;;;;;;347.23;317.85;;;;;;;18.65;32.30;91569.94;5029583;28;20060;-68
2022/03/31 09:08:34;;;;;;;320.20;292.77;;;;;;;18.63;32.11;91564.31;5032249;28;20446;-69
2022/03/31 09:11:01;;;;;;;331.02;302.08;;;;;;;18.64;32.30;91571.19;5029906;28;20091;-67
2022/03/31 09:13:35;;;;;;;331.17;301.83;;;;;;;18.64;32.31;91565.75;5033777;28;20037;-68
2022/03/31 09:16:06;;;;;;;324.45;296.85;;;;;;;18.65;32.30;91563.78;5047253;28;20142;-68
2022/03/31 09:18:36;;;;;;;344.13;314.88;;;;;;;18.64;32.23;91563.06;5025288;28;20064;-69
2022/03/31 09:21:05;;;;;;;340.60;310.05;;;;;;;18.64;32.12;91562.31;5024695;28;20107;-69
2022/03/31 09:23:38;;;;;;;331.38;302.35;;;;;;;18.62;32.11;91560.13;5024626;28;20137;-67
2022/03/31 09:26:11;;;;;;;329.65;301.30;;;;;;;18.62;32.51;91554.72;5028441;28;20071;-67
2022/03/31 09:28:36;;;;;;;349.52;320.52;;;;;;;18.62;32.19;91562.84;5028937;28;20158;-70
2022/03/31 09:31:12;;;;;;;330.02;301.75;;;;;;;18.60;32.20;91561.88;5035018;28;20059;-67
2022/03/31 09:33:45;;;;;;;333.02;304.15;;;;;;;18.59;32.27;91558.44;5034121;28;20041;-65
2022/03/31 09:36:21;;;;;;;329.30;301.15;;;;;;;18.60;32.38;91551.03;5032503;28;20182;-66
2022/03/31 09:38:55;;;;;;;322.98;294.65;;;;;;;18.61;32.24;91558.69;5036920;28;20049;-68
2022/03/31 09:41:24;;;;;;;338.75;309.30;;;;;;;18.59;32.15;91550.31;5038683;28;20052;-71
2022/03/31 09:43:52;;;;;;;337.38;308.15;;;;;;;18.61;32.38;91558.69;5039106;28;20049;-67
2022/03/31 09:46:19;;;;;;;327.58;298.88;;;;;;;18.61;32.26;91561.38;5036488;28;20048;-67
2022/03/31 09:48:45;;;;;;;310.70;284.02;;;;;;;18.62;32.37;91560.13;5035413;28;20060;-67
2022/03/31 09:51:12;;;;;;;341.20;312.08;;;;;;;18.62;32.39;91554.72;5032304;28;20052;-67
2022/03/31 09:53:39;;;;;;;327.23;298.17;;;;;;;18.63;32.54;91553.47;5032783;28;20199;-67
2022/03/31 09:56:06;;;;;;;332.33;304.10;;;;;;;18.62;32.60;91560.13;5032840;28;20069;-67
2022/03/31 09:58:35;;;;;;;350.15;319.75;;;;;;;18.63;32.60;91563.56;5032931;28;20198;-66
2022/03/31 10:01:03;;;;;;;320.52;293.17;;;;;;;18.64;32.38;91559.63;5033383;28;20068;-67
2022/03/31 10:03:29;;;;;;;335.00;305.38;;;;;;;18.64;32.47;91560.34;5036572;28;20536;-67
2022/03/31 10:05:56;;;;;;;344.05;314.63;;;;;;;18.67;32.27;91561.28;5035004;28;20055;-67
2022/03/31 10:08:22;;;;;;;335.98;306.48;;;;;;;18.64;32.41;91559.63;5034454;28;20445;-67
2022/03/31 10:10:48;;;;;;;333.58;304.60;;;;;;;18.65;32.18;91555.66;5036400;28;20045;-67
2022/03/31 10:13:30;;;;;;;334.75;305.35;;;;;;;18.65;32.43;91552.97;5035881;28;20040;-67
2022/03/31 10:16:04;;;;;;;334.27;304.38;;;;;;;18.65;32.44;91553.69;5029898;28;20045;-67
2022/03/31 10:18:30;;;;;;;335.83;306.50;;;;;;;18.68;32.48;91555.38;5031152;28;20071;-68
2022/03/31 10:20:58;;;;;;;328.02;298.48;;;;;;;18.67;32.34;91548.50;5032061;28;20445;-67
2022/03/31 10:26:21;;;;;;;339.30;309.15;;;;;;;18.68;32.30;91554.63;5032618;28;20091;-67
2022/03/31 10:28:57;;;;;;;341.58;311.48;;;;;;;18.66;32.23;91549.00;5030342;28;20041;-68
2022/03/31 10:31:34;;;;;;;333.52;304.65;;;;;;;18.67;32.31;91551.19;5033054;28;20033;-67
2022/03/31 10:34:00;;;;;;;327.95;299.55;;;;;;;18.69;32.30;91537.16;5030546;28;20125;-67
2022/03/31 10:36:45;;;;;;;341.50;311.85;;;;;;;18.67;32.21;91543.06;5031686;28;20052;-68
2022/03/31 10:39:21;;;;;;;310.85;283.52;;;;;;;18.69;32.19;91537.88;5031650;28;20052;-68
2022/03/31 10:42:00;;;;;;;334.83;305.30;;;;;;;18.70;32.30;91535.91;5030471;28;20107;-67
2022/03/31 10:44:26;;;;;;;344.00;313.80;;;;;;;18.68;32.29;91533.72;5029536;28;20119;-67
2022/03/31 10:47:09;;;;;;;335.70;306.23;;;;;;;18.69;32.42;91532.47;5029548;28;20061;-68
2022/03/31 10:49:36;;;;;;;341.67;311.77;;;;;;;18.69;32.21;91535.16;5027814;28;20048;-67
2022/03/31 10:52:19;;;;;;;328.60;300.30;;;;;;;18.70;32.48;91525.06;5032573;28;20067;-68
2022/03/31 10:54:45;;;;;;;338.98;309.70;;;;;;;18.67;32.14;91524.13;5031640;28;20075;-68
2022/03/31 10:57:13;;;;;;;334.95;305.45;;;;;;;18.66;32.43;91528.06;5032272;28;20094;-68
2022/03/31 10:59:40;;;;;;;334.05;305.52;;;;;;;18.64;32.43;91519.00;5031045;28;20561;-68
2022/03/31 11:02:09;;;;;;;339.08;309.17;;;;;;;18.63;32.33;91520.25;5029420;28;20127;-68
2022/03/31 11:04:43;;;;;;;348.77;318.42;;;;;;;18.62;32.64;91514.13;5032424;28;21015;-68
2022/03/31 11:07:14;;;;;;;339.80;310.20;;;;;;;18.63;32.56;91520.25;5035788;28;20064;-67